createdAt,value
2022-09-23T00:01:02.482Z,4.50
2022-09-23T00:03:30.959Z,4.50
2022-09-23T00:06:02.471Z,4.50
2022-09-23T00:08:29.871Z,4.60
2022-09-23T00:10:57.918Z,4.60
2022-09-23T00:13:25.864Z,4.70
2022-09-23T00:15:53.221Z,4.90
2022-09-23T00:18:21.538Z,4.90
2022-09-23T00:20:49.262Z,4.80
2022-09-23T00:23:16.799Z,4.90
2022-09-23T00:25:44.149Z,4.90
2022-09-23T00:28:11.481Z,4.80
2022-09-23T00:30:40.871Z,4.70
2022-09-23T00:33:08.562Z,4.70
2022-09-23T00:35:35.980Z,4.70
2022-09-23T00:38:03.700Z,4.60
2022-09-23T00:40:31.386Z,4.40
2022-09-23T00:42:58.921Z,4.40
2022-09-23T00:45:26.887Z,4.40
2022-09-23T00:47:56.804Z,4.40
2022-09-23T00:50:36.502Z,4.40
2022-09-23T00:53:07.066Z,4.50
2022-09-23T00:55:40.485Z,4.50
2022-09-23T00:58:09.977Z,4.50
2022-09-23T01:00:37.469Z,4.60
2022-09-23T01:03:07.101Z,4.50
2022-09-23T01:05:35.168Z,4.50
2022-09-23T01:08:03.837Z,4.50
2022-09-23T01:10:35.738Z,4.40
2022-09-23T01:13:03.149Z,4.30
2022-09-23T01:16:04.206Z,4.30
2022-09-23T01:18:34.746Z,4.20
2022-09-23T01:21:09.660Z,4.20
2022-09-23T01:23:37.145Z,4.20
2022-09-23T01:26:04.566Z,4.20
2022-09-23T01:28:33.613Z,4.20
2022-09-23T01:31:04.330Z,4.20
2022-09-23T01:33:34.904Z,4.10
2022-09-23T01:36:05.074Z,4.00
2022-09-23T01:38:36.777Z,4.00
2022-09-23T01:41:04.440Z,4.00
2022-09-23T01:43:38.874Z,3.90
2022-09-23T01:46:19.894Z,3.90
2022-09-23T01:48:54.441Z,3.90
2022-09-23T01:51:43.184Z,4.00
2022-09-23T01:54:25.982Z,4.20
2022-09-23T01:56:59.196Z,4.30
2022-09-23T01:59:33.204Z,4.40
2022-09-23T02:02:06.587Z,4.40
2022-09-23T02:04:40.131Z,4.30
2022-09-23T02:07:18.200Z,4.20
2022-09-23T02:09:49.169Z,4.10
2022-09-23T02:12:19.171Z,4.00
2022-09-23T02:14:46.960Z,4.00
2022-09-23T02:17:17.742Z,3.90
2022-09-23T02:19:57.499Z,3.90
2022-09-23T02:22:28.548Z,3.90
2022-09-23T02:24:59.118Z,3.80
2022-09-23T02:27:34.611Z,3.80
2022-09-23T02:30:22.303Z,3.90
2022-09-23T02:32:53.669Z,3.60
2022-09-23T02:35:33.386Z,3.60
2022-09-23T02:38:04.054Z,3.60
2022-09-23T02:40:39.070Z,3.50
2022-09-23T02:43:08.774Z,3.50
2022-09-23T02:45:38.356Z,3.50
2022-09-23T02:48:08.322Z,3.40
2022-09-23T02:50:37.412Z,3.40
2022-09-23T02:53:06.240Z,3.40
2022-09-23T02:55:33.598Z,3.40
2022-09-23T02:58:02.082Z,3.30
2022-09-23T03:00:35.313Z,3.30
2022-09-23T03:03:11.537Z,3.20
2022-09-23T03:05:44.870Z,3.10
2022-09-23T03:08:15.729Z,3.10
2022-09-23T03:10:53.165Z,3.10
2022-09-23T03:13:36.229Z,3.10
2022-09-23T03:16:20.910Z,3.10
2022-09-23T03:18:48.669Z,3.10
2022-09-23T03:21:32.357Z,3.00
2022-09-23T03:24:01.253Z,3.00
2022-09-23T03:26:31.452Z,3.10
2022-09-23T03:28:59.844Z,3.00
2022-09-23T03:31:27.665Z,3.00
2022-09-23T03:33:57.422Z,3.00
2022-09-23T03:36:46.853Z,2.90
2022-09-23T03:39:18.152Z,2.90
2022-09-23T03:41:49.634Z,2.80
2022-09-23T03:44:17.774Z,2.80
2022-09-23T03:46:49.952Z,2.70
2022-09-23T03:49:25.482Z,2.70
2022-09-23T03:51:53.756Z,2.80
2022-09-23T03:54:21.280Z,2.80
2022-09-23T03:56:48.795Z,2.90
2022-09-23T03:59:16.619Z,2.80
2022-09-23T04:01:44.455Z,2.90
2022-09-23T04:04:11.935Z,2.90
2022-09-23T04:06:39.482Z,2.80
2022-09-23T04:09:07.287Z,2.80
2022-09-23T04:11:35.304Z,2.70
2022-09-23T04:14:02.907Z,2.70
2022-09-23T04:16:30.984Z,2.60
2022-09-23T04:18:58.949Z,2.60
2022-09-23T04:21:27.007Z,2.60
2022-09-23T04:23:54.742Z,2.70
2022-09-23T04:26:22.279Z,2.70
2022-09-23T04:28:49.751Z,2.80
2022-09-23T04:31:17.378Z,2.70
2022-09-23T04:33:44.849Z,2.70
2022-09-23T04:36:12.508Z,2.80
2022-09-23T04:38:39.976Z,2.70
2022-09-23T04:41:09.000Z,2.70
2022-09-23T04:43:36.533Z,2.70
2022-09-23T04:46:05.530Z,2.80
2022-09-23T04:48:33.531Z,2.70
2022-09-23T04:51:12.038Z,2.70
2022-09-23T04:53:41.069Z,2.80
2022-09-23T04:56:10.425Z,2.80
2022-09-23T04:58:38.122Z,2.90
2022-09-23T05:01:32.601Z,3.00
2022-09-23T05:04:05.454Z,3.10
2022-09-23T05:06:37.347Z,3.20
2022-09-23T05:09:07.277Z,3.30
2022-09-23T05:11:35.239Z,3.40
2022-09-23T05:14:03.460Z,3.50
2022-09-23T05:16:32.005Z,3.70
2022-09-23T05:18:59.831Z,3.80
2022-09-23T05:21:29.163Z,3.90
2022-09-23T05:23:59.112Z,4.10
2022-09-23T05:26:28.097Z,4.00
2022-09-23T05:28:56.282Z,4.10
2022-09-23T05:31:25.511Z,4.10
2022-09-23T05:33:57.971Z,4.20
2022-09-23T05:36:25.845Z,4.40
2022-09-23T05:38:53.646Z,4.30
2022-09-23T05:41:23.344Z,4.60
2022-09-23T05:43:51.973Z,4.70
2022-09-23T05:46:20.521Z,4.70
2022-09-23T05:48:48.298Z,4.90
2022-09-23T05:51:17.502Z,5.10
2022-09-23T05:53:47.874Z,5.20
2022-09-23T05:56:16.431Z,5.30
2022-09-23T05:58:44.023Z,5.40
2022-09-23T06:01:15.904Z,5.50
2022-09-23T06:03:46.095Z,5.60
2022-09-23T06:06:18.308Z,5.40
2022-09-23T06:08:46.158Z,5.30
2022-09-23T06:11:13.917Z,5.40
2022-09-23T06:13:42.047Z,5.30
2022-09-23T06:16:11.102Z,5.30
2022-09-23T06:18:40.207Z,5.30
2022-09-23T06:21:08.547Z,5.50
2022-09-23T06:23:39.025Z,5.60
2022-09-23T06:26:08.932Z,5.70
2022-09-23T06:28:37.544Z,5.90
2022-09-23T06:31:10.859Z,6.10
2022-09-23T06:33:40.547Z,6.00
2022-09-23T06:36:08.112Z,6.20
2022-09-23T06:38:38.562Z,6.20
2022-09-23T06:41:06.119Z,6.40
2022-09-23T06:43:33.864Z,6.50
2022-09-23T06:46:02.022Z,6.50
2022-09-23T06:48:29.919Z,6.60
2022-09-23T06:51:02.950Z,6.80
2022-09-23T06:53:33.801Z,6.80
2022-09-23T06:56:05.863Z,6.90
2022-09-23T06:58:34.134Z,6.90
2022-09-23T07:01:02.915Z,6.90
2022-09-23T07:03:31.916Z,6.90
2022-09-23T07:05:59.933Z,6.90
2022-09-23T07:08:28.524Z,7.30
2022-09-23T07:10:56.882Z,7.50
2022-09-23T07:13:24.933Z,7.70
2022-09-23T07:15:53.401Z,7.70
2022-09-23T07:18:23.793Z,7.80
2022-09-23T07:20:52.295Z,7.90
2022-09-23T07:23:19.853Z,8.20
2022-09-23T07:25:47.348Z,8.40
2022-09-23T07:28:14.832Z,8.60
2022-09-23T07:30:55.612Z,8.70
2022-09-23T07:33:32.143Z,8.60
2022-09-23T07:36:04.598Z,8.80
2022-09-23T07:38:32.198Z,9.10
2022-09-23T07:41:07.546Z,9.30
2022-09-23T07:43:35.578Z,9.50
2022-09-23T07:46:05.489Z,9.40
2022-09-23T07:48:34.659Z,9.30
2022-09-23T07:51:09.786Z,9.20
2022-09-23T07:53:37.585Z,9.30
2022-09-23T07:56:06.870Z,9.40
2022-09-23T07:58:35.215Z,9.60
2022-09-23T08:01:04.678Z,9.70
2022-09-23T08:03:32.353Z,9.70
2022-09-23T08:06:04.641Z,9.60
2022-09-23T08:08:32.274Z,9.90
2022-09-23T08:11:08.035Z,10.10
2022-09-23T08:13:35.575Z,10.00
2022-09-23T08:16:03.233Z,10.30
2022-09-23T08:18:30.815Z,10.50
2022-09-23T08:20:58.537Z,10.50
2022-09-23T08:23:26.039Z,10.50
2022-09-23T08:25:59.466Z,10.60
2022-09-23T08:28:27.778Z,11.30
2022-09-23T08:30:55.691Z,11.70
2022-09-23T08:33:24.052Z,11.70
2022-09-23T08:35:53.031Z,11.80
2022-09-23T08:38:20.819Z,11.70
2022-09-23T08:40:49.933Z,11.80
2022-09-23T08:43:37.753Z,11.70
2022-09-23T08:46:06.924Z,11.90
2022-09-23T08:48:52.780Z,11.90
2022-09-23T08:51:24.239Z,11.90
2022-09-23T08:53:52.748Z,11.90
2022-09-23T08:56:22.472Z,11.90
2022-09-23T08:58:55.926Z,11.80
2022-09-23T09:01:40.269Z,11.60
2022-09-23T09:04:31.171Z,11.60
2022-09-23T09:07:24.654Z,11.70
2022-09-23T09:09:51.047Z,11.60
2022-09-23T09:12:21.085Z,12.30
2022-09-23T09:15:00.348Z,12.70
2022-09-23T09:17:35.288Z,12.70
2022-09-23T09:20:12.936Z,13.90
2022-09-23T09:22:54.245Z,15.40
2022-09-23T09:25:36.871Z,16.80
2022-09-23T09:28:14.534Z,17.10
2022-09-23T09:30:47.732Z,17.80
2022-09-23T09:33:17.574Z,17.90
2022-09-23T09:35:57.544Z,18.70
2022-09-23T09:38:25.108Z,19.10
2022-09-23T09:40:52.653Z,20.30
2022-09-23T09:43:23.656Z,22.10
2022-09-23T09:45:59.304Z,22.90
2022-09-23T09:48:33.364Z,25.50
2022-09-23T09:51:19.036Z,27.60
2022-09-23T09:53:46.520Z,29.80
2022-09-23T09:56:16.226Z,32.00
2022-09-23T09:58:51.576Z,32.40
2022-09-23T10:01:19.001Z,33.30
2022-09-23T10:03:47.169Z,35.80
2022-09-23T10:06:23.751Z,35.80
2022-09-23T10:09:14.782Z,40.00
2022-09-23T10:11:42.661Z,40.00
2022-09-23T10:14:12.885Z,42.50
2022-09-23T10:16:41.879Z,42.10
2022-09-23T10:19:22.067Z,39.30
2022-09-23T10:21:57.416Z,41.10
2022-09-23T10:24:26.502Z,38.20
2022-09-23T10:26:56.968Z,36.10
2022-09-23T10:29:24.564Z,37.00
2022-09-23T10:32:13.577Z,33.50
2022-09-23T10:34:46.855Z,34.80
2022-09-23T10:37:15.955Z,35.40
2022-09-23T10:40:02.190Z,34.60
2022-09-23T10:43:05.975Z,32.30
2022-09-23T10:45:53.303Z,27.80
2022-09-23T10:48:36.769Z,24.50
2022-09-23T10:51:16.334Z,28.10
2022-09-23T10:54:04.188Z,30.90
2022-09-23T10:56:37.198Z,32.10
2022-09-23T10:59:24.641Z,32.60
2022-09-23T11:02:02.281Z,27.90
2022-09-23T11:04:38.962Z,27.10
2022-09-23T11:07:21.729Z,23.20
2022-09-23T11:09:52.384Z,24.80
2022-09-23T11:12:22.861Z,24.20
2022-09-23T11:14:53.512Z,22.00
2022-09-23T11:17:40.808Z,19.90
2022-09-23T11:20:22.162Z,19.10
2022-09-23T11:23:16.186Z,19.10
2022-09-23T11:25:50.818Z,18.60
2022-09-23T11:28:29.460Z,18.40
2022-09-23T11:31:06.106Z,17.40
2022-09-23T11:33:40.488Z,16.40
2022-09-23T11:36:22.593Z,16.30
2022-09-23T11:38:50.938Z,16.20
2022-09-23T11:41:22.217Z,15.30
2022-09-23T11:43:53.057Z,16.50
2022-09-23T11:46:26.703Z,17.10
2022-09-23T11:48:54.218Z,17.10
2022-09-23T11:51:25.258Z,16.70
2022-09-23T11:54:00.384Z,15.80
2022-09-23T11:56:35.548Z,16.10
2022-09-23T11:59:33.509Z,15.60
2022-09-23T12:02:25.726Z,15.60
2022-09-23T12:05:03.337Z,16.40
2022-09-23T12:07:57.737Z,17.00
2022-09-23T12:10:35.236Z,17.00
2022-09-23T12:13:05.924Z,16.90
2022-09-23T12:15:37.664Z,16.80
2022-09-23T12:18:14.446Z,16.30
2022-09-23T12:20:42.481Z,16.40
2022-09-23T12:23:28.721Z,16.00
2022-09-23T12:26:02.361Z,16.40
2022-09-23T12:28:33.778Z,16.00
2022-09-23T12:31:02.444Z,15.90
2022-09-23T12:33:32.723Z,16.30
2022-09-23T12:36:07.342Z,16.50
2022-09-23T12:38:35.008Z,16.20
2022-09-23T12:41:08.947Z,16.40
2022-09-23T12:43:36.564Z,16.20
2022-09-23T12:46:40.340Z,16.30
2022-09-23T12:49:24.485Z,16.40
2022-09-23T12:52:12.709Z,16.30
2022-09-23T12:54:41.591Z,15.90
2022-09-23T12:57:12.929Z,15.80
2022-09-23T12:59:59.614Z,15.90
2022-09-23T13:02:32.544Z,15.80
2022-09-23T13:05:18.717Z,15.70
2022-09-23T13:07:48.582Z,15.30
2022-09-23T13:10:19.571Z,15.30
2022-09-23T13:12:49.747Z,15.30
2022-09-23T13:15:26.078Z,15.00
2022-09-23T13:17:53.860Z,15.10
2022-09-23T13:20:21.498Z,15.00
2022-09-23T13:22:49.262Z,15.10
2022-09-23T13:25:19.978Z,15.00
2022-09-23T13:27:59.218Z,14.80
2022-09-23T13:30:27.247Z,14.90
2022-09-23T13:33:12.090Z,14.80
2022-09-23T13:35:52.664Z,14.50
2022-09-23T13:38:28.842Z,14.40
2022-09-23T13:41:01.977Z,14.70
2022-09-23T13:43:40.272Z,15.00
2022-09-23T13:46:35.616Z,15.10
2022-09-23T13:49:03.184Z,14.90
2022-09-23T13:51:33.821Z,14.90
2022-09-23T13:54:03.051Z,14.80
2022-09-23T13:56:32.220Z,14.90
2022-09-23T13:59:18.913Z,14.90
2022-09-23T14:01:47.733Z,15.00
2022-09-23T14:04:25.566Z,15.10
2022-09-23T14:06:54.597Z,15.30
2022-09-23T14:09:24.393Z,15.30
2022-09-23T14:11:52.502Z,15.30
2022-09-23T14:14:20.178Z,15.30
2022-09-23T14:16:49.919Z,15.20
2022-09-23T14:19:18.814Z,15.00
2022-09-23T14:21:53.688Z,15.20
2022-09-23T14:24:21.481Z,15.10
2022-09-23T14:26:48.942Z,15.10
2022-09-23T14:29:21.124Z,15.00
2022-09-23T14:32:11.507Z,14.50
2022-09-23T14:35:02.125Z,14.60
2022-09-23T14:37:57.917Z,14.10
2022-09-23T14:40:48.924Z,14.10
2022-09-23T14:43:19.574Z,12.80
2022-09-23T14:45:50.778Z,12.00
2022-09-23T14:48:21.651Z,12.40
2022-09-23T14:50:51.825Z,11.90
2022-09-23T14:53:19.287Z,11.90
2022-09-23T14:55:47.304Z,11.50
2022-09-23T14:58:19.634Z,11.00
2022-09-23T15:00:59.686Z,10.90
2022-09-23T15:03:28.708Z,10.80
2022-09-23T15:06:08.294Z,10.50
2022-09-23T15:08:36.328Z,10.40
2022-09-23T15:11:08.218Z,10.30
2022-09-23T15:13:40.580Z,10.30
2022-09-23T15:16:08.912Z,10.40
2022-09-23T15:18:38.045Z,10.30
2022-09-23T15:21:10.569Z,10.40
2022-09-23T15:23:47.973Z,10.10
2022-09-23T15:26:16.899Z,10.20
2022-09-23T15:28:45.550Z,10.10
2022-09-23T15:31:13.616Z,10.30
2022-09-23T15:33:41.282Z,10.20
2022-09-23T15:36:15.638Z,10.10
2022-09-23T15:38:43.787Z,10.10
2022-09-23T15:41:11.558Z,9.90
2022-09-23T15:43:40.034Z,9.70
2022-09-23T15:46:18.555Z,9.60
2022-09-23T15:48:58.781Z,9.60
2022-09-23T15:51:27.076Z,9.40
2022-09-23T15:53:58.111Z,9.10
2022-09-23T15:56:27.264Z,9.00
2022-09-23T15:58:55.066Z,9.00
2022-09-23T16:01:28.400Z,8.90
2022-09-23T16:03:55.909Z,8.90
2022-09-23T16:06:28.285Z,8.70
2022-09-23T16:08:56.478Z,8.60
2022-09-23T16:11:26.110Z,8.50
2022-09-23T16:13:53.871Z,8.40
2022-09-23T16:16:21.640Z,8.40
2022-09-23T16:18:50.142Z,8.20
2022-09-23T16:21:19.224Z,8.10
2022-09-23T16:23:48.365Z,8.00
2022-09-23T16:26:21.878Z,7.90
2022-09-23T16:28:49.865Z,7.70
2022-09-23T16:31:17.848Z,7.70
2022-09-23T16:33:51.598Z,7.60
2022-09-23T16:36:23.629Z,7.50
2022-09-23T16:38:51.354Z,7.40
2022-09-23T16:41:18.716Z,7.30
2022-09-23T16:43:46.695Z,7.20
2022-09-23T16:46:15.836Z,7.10
2022-09-23T16:48:48.285Z,7.00
2022-09-23T16:51:22.515Z,7.00
2022-09-23T16:53:51.085Z,6.90
2022-09-23T16:56:25.648Z,6.60
2022-09-23T16:58:55.957Z,6.70
2022-09-23T17:01:46.685Z,6.70
2022-09-23T17:04:15.367Z,6.70
2022-09-23T17:06:44.364Z,6.60
2022-09-23T17:09:12.992Z,6.60
2022-09-23T17:11:40.615Z,6.50
2022-09-23T17:14:08.444Z,6.30
2022-09-23T17:16:39.560Z,6.20
2022-09-23T17:19:08.439Z,6.20
2022-09-23T17:21:36.136Z,6.20
2022-09-23T17:24:04.008Z,6.20
2022-09-23T17:26:31.625Z,6.20
2022-09-23T17:29:01.055Z,6.10
2022-09-23T17:31:28.872Z,6.10
2022-09-23T17:33:56.758Z,6.00
2022-09-23T17:36:25.375Z,5.90
2022-09-23T17:38:54.230Z,5.90
2022-09-23T17:41:22.201Z,5.90
2022-09-23T17:43:58.867Z,5.90
2022-09-23T17:46:29.191Z,5.90
2022-09-23T17:48:57.838Z,5.80
2022-09-23T17:51:26.274Z,5.70
2022-09-23T17:53:54.354Z,5.70
2022-09-23T17:56:23.354Z,5.60
2022-09-23T17:58:51.770Z,5.60
2022-09-23T18:01:21.113Z,5.50
2022-09-23T18:03:49.078Z,5.40
2022-09-23T18:06:22.004Z,5.40
2022-09-23T18:08:53.506Z,5.30
2022-09-23T18:11:22.893Z,5.40
2022-09-23T18:13:56.185Z,5.30
2022-09-23T18:16:30.895Z,5.20
2022-09-23T18:19:00.940Z,5.20
2022-09-23T18:21:33.827Z,5.20
2022-09-23T18:26:56.891Z,5.10
2022-09-23T18:29:26.833Z,5.00
2022-09-23T18:31:54.756Z,5.00
2022-09-23T18:34:25.806Z,5.00
2022-09-23T18:36:56.427Z,5.00
2022-09-23T18:39:24.916Z,4.90
2022-09-23T18:41:53.114Z,4.90
2022-09-23T18:44:21.293Z,4.90
2022-09-23T18:46:48.796Z,4.80
2022-09-23T18:49:39.859Z,4.90
2022-09-23T18:52:07.516Z,4.80
2022-09-23T18:54:35.037Z,4.80
2022-09-23T18:57:03.361Z,4.60
2022-09-23T18:59:32.106Z,4.50
2022-09-23T19:01:59.896Z,4.60
2022-09-23T19:04:27.918Z,4.50
2022-09-23T19:06:57.227Z,4.50
2022-09-23T19:09:25.743Z,4.50
2022-09-23T19:11:53.895Z,4.50
2022-09-23T19:14:21.747Z,4.50
2022-09-23T19:16:49.759Z,4.40
2022-09-23T19:19:17.680Z,4.40
2022-09-23T19:21:45.351Z,4.40
2022-09-23T19:24:16.116Z,4.40
2022-09-23T19:26:44.507Z,4.30
2022-09-23T19:29:14.092Z,4.30
2022-09-23T19:31:42.445Z,4.30
2022-09-23T19:34:14.347Z,4.30
2022-09-23T19:36:43.714Z,4.20
2022-09-23T19:39:15.001Z,4.20
2022-09-23T19:41:42.888Z,4.20
2022-09-23T19:44:10.724Z,4.20
2022-09-23T19:46:39.734Z,4.10
2022-09-23T19:49:08.278Z,4.00
2022-09-23T19:51:36.015Z,4.00
2022-09-23T19:54:04.339Z,4.00
2022-09-23T19:56:32.647Z,4.00
2022-09-23T19:59:03.432Z,4.00
2022-09-23T20:01:32.589Z,4.00
2022-09-23T20:04:00.434Z,3.90
2022-09-23T20:06:32.745Z,3.90
2022-09-23T20:09:01.209Z,3.90
2022-09-23T20:11:29.669Z,3.80
2022-09-23T20:14:02.080Z,3.70
2022-09-23T20:16:32.691Z,3.70
2022-09-23T20:19:01.115Z,3.70
2022-09-23T20:21:29.726Z,3.80
2022-09-23T20:24:00.514Z,3.70
2022-09-23T20:26:46.888Z,3.60
2022-09-23T20:29:14.847Z,3.60
2022-09-23T20:31:42.768Z,3.50
2022-09-23T20:34:11.649Z,3.50
2022-09-23T20:36:41.582Z,3.60
2022-09-23T20:39:10.210Z,3.60
2022-09-23T20:41:39.514Z,3.50
2022-09-23T20:44:09.325Z,3.40
2022-09-23T20:46:37.025Z,3.40
2022-09-23T20:49:05.011Z,3.40
2022-09-23T20:51:36.090Z,3.50
2022-09-23T20:54:03.938Z,3.50
2022-09-23T20:56:32.075Z,3.50
2022-09-23T20:59:00.279Z,3.40
2022-09-23T21:01:28.031Z,3.40
2022-09-23T21:03:56.142Z,3.30
2022-09-23T21:06:26.690Z,3.30
2022-09-23T21:08:55.210Z,3.30
2022-09-23T21:11:22.743Z,3.30
2022-09-23T21:13:51.466Z,3.30
2022-09-23T21:16:21.667Z,3.20
2022-09-23T21:18:50.631Z,3.20
2022-09-23T21:21:21.110Z,3.20
2022-09-23T21:23:49.229Z,3.20
2022-09-23T21:26:21.367Z,3.10
2022-09-23T21:28:50.004Z,3.10
2022-09-23T21:31:26.148Z,3.00
2022-09-23T21:33:59.203Z,3.00
2022-09-23T21:36:28.438Z,3.00
2022-09-23T21:38:56.248Z,3.00
2022-09-23T21:41:24.064Z,3.00
2022-09-23T21:43:51.749Z,3.00
2022-09-23T21:46:20.861Z,3.10
2022-09-23T21:48:50.634Z,3.20
2022-09-23T21:51:21.814Z,3.30
2022-09-23T21:53:50.536Z,3.30
2022-09-23T21:56:20.915Z,3.40
2022-09-23T21:58:50.076Z,3.50
2022-09-23T22:01:25.164Z,3.60
2022-09-23T22:03:54.125Z,3.60
2022-09-23T22:06:27.207Z,3.70
2022-09-23T22:08:59.496Z,3.80
2022-09-23T22:11:46.765Z,3.80
2022-09-23T22:14:15.257Z,3.90
2022-09-23T22:16:42.785Z,3.90
2022-09-23T22:19:11.490Z,3.90
2022-09-23T22:21:39.718Z,4.00
2022-09-23T22:24:08.106Z,4.10
2022-09-23T22:26:40.110Z,4.20
2022-09-23T22:29:26.980Z,4.20
2022-09-23T22:32:27.216Z,4.20
2022-09-23T22:34:54.715Z,4.30
2022-09-23T22:37:25.843Z,4.30
2022-09-23T22:39:53.732Z,4.30
2022-09-23T22:42:22.729Z,4.20
2022-09-23T22:44:50.970Z,4.20
2022-09-23T22:47:18.775Z,4.10
2022-09-23T22:49:46.524Z,4.10
2022-09-23T22:52:16.098Z,4.20
2022-09-23T22:54:44.024Z,4.20
2022-09-23T22:57:11.438Z,4.20
2022-09-23T22:59:38.909Z,4.30
2022-09-23T23:02:08.153Z,4.40
2022-09-23T23:04:37.246Z,4.30
2022-09-23T23:07:06.691Z,4.20
2022-09-23T23:09:34.115Z,3.90
2022-09-23T23:12:02.870Z,3.90
2022-09-23T23:14:31.485Z,3.90
2022-09-23T23:16:59.763Z,3.90
2022-09-23T23:19:27.491Z,3.80
2022-09-23T23:21:55.059Z,3.80
2022-09-23T23:24:23.611Z,3.90
2022-09-23T23:26:52.086Z,3.90
2022-09-23T23:29:20.894Z,3.80
2022-09-23T23:31:48.849Z,3.70
2022-09-23T23:34:18.159Z,3.60
2022-09-23T23:36:46.032Z,3.50
2022-09-23T23:39:14.074Z,3.30
2022-09-23T23:41:41.842Z,3.30
2022-09-23T23:44:09.423Z,3.30
2022-09-23T23:46:37.672Z,3.20
2022-09-23T23:49:05.095Z,3.10
2022-09-23T23:51:32.773Z,3.20
2022-09-23T23:54:00.329Z,3.30
2022-09-23T23:56:30.330Z,3.20
2022-09-23T23:58:58.826Z,3.00
